createdAt,value
2023-03-04T00:02:08.193Z,0
2023-03-04T00:02:49.298Z,0
2023-03-04T00:03:29.795Z,0
2023-03-04T00:04:10.286Z,0
2023-03-04T00:07:32.952Z,0
2023-03-04T00:08:14.409Z,0
2023-03-04T00:08:56.827Z,0
2023-03-04T00:09:37.354Z,0
2023-03-04T00:13:11.976Z,0
2023-03-04T00:13:52.466Z,0
2023-03-04T00:14:32.983Z,0
2023-03-04T00:15:13.534Z,0
2023-03-04T00:17:29.669Z,0
2023-03-04T00:18:11.115Z,0
2023-03-04T00:18:55.138Z,0
2023-03-04T00:19:38.239Z,0
2023-03-04T00:21:52.764Z,0
2023-03-04T00:22:33.854Z,0
2023-03-04T00:23:15.175Z,0
2023-03-04T00:23:55.691Z,0
2023-03-04T00:25:17.668Z,0
2023-03-04T00:25:58.176Z,0
2023-03-04T00:26:39.467Z,0
2023-03-04T00:27:19.982Z,0
2023-03-04T00:28:00.494Z,0
2023-03-04T00:28:41.952Z,0
2023-03-04T00:34:47.508Z,0
2023-03-04T00:35:28.034Z,0
2023-03-04T00:36:08.531Z,0
2023-03-04T00:36:49.119Z,0
2023-03-04T00:37:30.960Z,0
2023-03-04T00:38:11.469Z,0
2023-03-04T00:38:51.999Z,0
2023-03-04T00:42:30.103Z,0
2023-03-04T00:43:11.409Z,0
2023-03-04T00:43:51.931Z,0
2023-03-04T00:44:32.440Z,0
2023-03-04T00:47:13.791Z,0
2023-03-04T00:47:54.305Z,0
2023-03-04T00:48:34.794Z,0
2023-03-04T00:49:15.371Z,0
2023-03-04T00:51:29.093Z,0
2023-03-04T00:52:09.604Z,0
2023-03-04T00:52:50.143Z,0
2023-03-04T00:53:31.174Z,0
2023-03-04T00:55:34.494Z,0
2023-03-04T00:56:14.994Z,0
2023-03-04T00:58:43.023Z,0
2023-03-04T00:59:23.541Z,0
2023-03-04T01:00:04.068Z,0
2023-03-04T01:00:45.281Z,0
2023-03-04T01:02:47.718Z,0
2023-03-04T01:03:29.057Z,0
2023-03-04T01:06:08.591Z,0
2023-03-04T01:06:49.134Z,0
2023-03-04T01:07:32.722Z,0
2023-03-04T01:08:13.709Z,0
2023-03-04T01:10:27.908Z,0
2023-03-04T01:11:08.498Z,0
2023-03-04T01:11:49.006Z,0
2023-03-04T01:12:29.532Z,0
2023-03-04T01:18:26.126Z,0
2023-03-04T01:19:08.648Z,0
2023-03-04T01:19:49.209Z,0
2023-03-04T01:20:31.708Z,0
2023-03-04T01:22:44.784Z,0
2023-03-04T01:23:25.295Z,0
2023-03-04T01:24:05.827Z,0
2023-03-04T01:24:46.366Z,0
2023-03-04T01:28:49.660Z,0
2023-03-04T01:31:28.192Z,0
2023-03-04T01:32:08.772Z,0
2023-03-04T01:32:49.253Z,0
2023-03-04T01:33:29.773Z,0
2023-03-04T01:37:33.060Z,0
2023-03-04T01:38:13.588Z,0
2023-03-04T01:38:54.137Z,0
2023-03-04T01:39:34.674Z,0
2023-03-04T01:40:15.210Z,0
2023-03-04T01:40:55.729Z,0
2023-03-04T01:41:36.260Z,0
2023-03-04T01:42:16.778Z,0
2023-03-04T01:44:55.278Z,0
2023-03-04T01:45:35.798Z,0
2023-03-04T01:46:16.300Z,0
2023-03-04T01:46:56.832Z,0
2023-03-04T01:50:59.958Z,0
2023-03-04T01:51:40.505Z,0
2023-03-04T01:52:21.054Z,0
2023-03-04T01:53:01.589Z,0
2023-03-04T01:53:42.096Z,0
2023-03-04T01:54:22.603Z,0
2023-03-04T01:55:03.156Z,0
2023-03-04T01:55:43.695Z,0
2023-03-04T01:56:24.254Z,0
2023-03-04T01:59:02.698Z,0
2023-03-04T01:59:43.217Z,0
2023-03-04T02:00:23.785Z,0
2023-03-04T02:01:04.301Z,0
2023-03-04T02:05:59.976Z,0
2023-03-04T02:06:40.460Z,0
2023-03-04T02:07:20.965Z,0
2023-03-04T02:08:02.368Z,0
2023-03-04T02:10:15.912Z,0
2023-03-04T02:10:56.433Z,0
2023-03-04T02:11:38.586Z,0
2023-03-04T02:12:19.087Z,0
2023-03-04T02:14:33.600Z,0
2023-03-04T02:15:14.124Z,0
2023-03-04T02:15:54.749Z,0
2023-03-04T02:16:36.218Z,0
2023-03-04T02:19:58.771Z,0
2023-03-04T02:20:39.321Z,0
2023-03-04T02:21:19.825Z,0
2023-03-04T02:22:00.319Z,0
2023-03-04T02:22:40.831Z,0
2023-03-04T02:23:21.358Z,0
2023-03-04T02:24:01.872Z,0
2023-03-04T02:24:42.406Z,0
2023-03-04T02:25:22.934Z,0
2023-03-04T02:30:48.433Z,0
2023-03-04T02:31:29.790Z,0
2023-03-04T02:32:10.279Z,0
2023-03-04T02:32:50.767Z,0
2023-03-04T02:33:31.431Z,0
2023-03-04T02:34:11.804Z,0
2023-03-04T02:34:52.329Z,0
2023-03-04T02:35:32.934Z,0
2023-03-04T02:36:13.355Z,0
2023-03-04T02:42:59.423Z,0
2023-03-04T02:43:39.956Z,0
2023-03-04T02:44:20.503Z,0
2023-03-04T02:45:01.057Z,0
2023-03-04T02:45:41.605Z,0
2023-03-04T02:46:22.172Z,0
2023-03-04T02:47:02.671Z,0
2023-03-04T02:47:43.166Z,0
2023-03-04T02:53:08.798Z,0
2023-03-04T02:53:49.312Z,0
2023-03-04T02:54:29.834Z,0
2023-03-04T02:55:11.304Z,0
2023-03-04T02:55:51.854Z,0
2023-03-04T02:56:32.341Z,0
2023-03-04T02:57:12.851Z,0
2023-03-04T02:57:53.373Z,0
2023-03-04T03:03:58.700Z,0
2023-03-04T03:04:39.226Z,0
2023-03-04T03:05:19.777Z,0
2023-03-04T03:06:00.281Z,0
2023-03-04T03:06:40.800Z,0
2023-03-04T03:07:21.303Z,0
2023-03-04T03:08:01.961Z,0
2023-03-04T03:08:43.315Z,0
2023-03-04T03:14:08.435Z,0
2023-03-04T03:14:48.949Z,0
2023-03-04T03:15:29.503Z,0
2023-03-04T03:16:10.902Z,0
2023-03-04T03:16:51.369Z,0
2023-03-04T03:17:31.897Z,0
2023-03-04T03:18:12.434Z,0
2023-03-04T03:18:52.938Z,0
2023-03-04T03:22:27.011Z,0
2023-03-04T03:23:07.619Z,0
2023-03-04T03:23:48.125Z,0
2023-03-04T03:24:28.791Z,0
2023-03-04T03:27:11.764Z,0
2023-03-04T03:27:52.283Z,0
2023-03-04T03:28:32.798Z,0
2023-03-04T03:29:13.314Z,0
2023-03-04T03:29:53.996Z,0
2023-03-04T03:30:34.514Z,0
2023-03-04T03:31:15.080Z,0
2023-03-04T03:31:55.699Z,0
2023-03-04T03:32:36.158Z,0
2023-03-04T03:33:16.582Z,0
2023-03-04T03:40:14.141Z,0
2023-03-04T03:40:54.656Z,0
2023-03-04T03:41:35.174Z,0
2023-03-04T03:42:16.504Z,0
2023-03-04T03:44:18.061Z,0
2023-03-04T03:44:58.609Z,0
2023-03-04T03:45:39.098Z,0
2023-03-04T03:46:19.619Z,0
2023-03-04T03:47:00.130Z,0
2023-03-04T03:47:41.401Z,0
2023-03-04T03:48:21.905Z,0
2023-03-04T03:49:02.405Z,0
2023-03-04T03:56:28.162Z,0
2023-03-04T03:57:08.693Z,0
2023-03-04T03:57:49.896Z,0
2023-03-04T03:58:30.410Z,0
2023-03-04T03:59:10.929Z,0
2023-03-04T03:59:51.434Z,0
2023-03-04T04:00:31.964Z,0
2023-03-04T04:01:12.464Z,0
2023-03-04T04:09:30.289Z,0
2023-03-04T04:10:10.808Z,0
2023-03-04T04:10:51.408Z,0
2023-03-04T04:11:31.860Z,0
2023-03-04T04:14:55.406Z,0
2023-03-04T04:15:35.919Z,0
2023-03-04T04:16:16.523Z,0
2023-03-04T04:16:56.992Z,0
2023-03-04T04:17:37.516Z,0
2023-03-04T04:18:18.008Z,0
2023-03-04T04:18:58.520Z,0
2023-03-04T04:19:39.059Z,0
2023-03-04T04:20:19.580Z,0
2023-03-04T04:24:40.254Z,0
2023-03-04T04:27:00.331Z,0
2023-03-04T04:27:40.826Z,0
2023-03-04T04:28:21.431Z,0
2023-03-04T04:29:01.903Z,0
2023-03-04T04:33:05.901Z,0
2023-03-04T04:33:46.465Z,0
2023-03-04T04:34:27.003Z,0
2023-03-04T04:35:07.527Z,0
2023-03-04T04:35:48.084Z,0
2023-03-04T04:36:28.562Z,0
2023-03-04T04:37:09.080Z,0
2023-03-04T04:37:49.626Z,0
2023-03-04T04:45:16.205Z,0
2023-03-04T04:45:56.750Z,0
2023-03-04T04:46:37.258Z,0
2023-03-04T04:47:17.781Z,0
2023-03-04T04:47:58.296Z,0
2023-03-04T04:48:38.874Z,0
2023-03-04T04:49:19.398Z,0
2023-03-04T04:49:59.913Z,0
2023-03-04T04:58:18.000Z,0
2023-03-04T04:58:59.046Z,0
2023-03-04T04:59:40.343Z,0
2023-03-04T05:00:20.851Z,0
2023-03-04T05:02:34.089Z,0
2023-03-04T05:03:15.777Z,0
2023-03-04T05:03:55.158Z,0
2023-03-04T05:04:35.685Z,0
2023-03-04T05:07:04.651Z,0
2023-03-04T05:07:46.131Z,0
2023-03-04T05:08:27.644Z,0
2023-03-04T05:09:09.070Z,0
2023-03-04T05:11:27.353Z,0
2023-03-04T05:12:08.780Z,0
2023-03-04T05:12:50.792Z,0
2023-03-04T05:15:31.361Z,0
2023-03-04T05:16:11.916Z,0
2023-03-04T05:16:52.361Z,0
2023-03-04T05:17:32.874Z,0
2023-03-04T05:20:15.981Z,0
2023-03-04T05:20:56.530Z,0
2023-03-04T05:21:37.071Z,0
2023-03-04T05:22:17.609Z,0
2023-03-04T05:22:58.112Z,0
2023-03-04T05:23:38.634Z,0
2023-03-04T05:24:19.145Z,0
2023-03-04T05:24:59.643Z,0
2023-03-04T05:25:40.176Z,0
2023-03-04T05:26:20.725Z,0
2023-03-04T05:28:34.912Z,0
2023-03-04T05:31:05.676Z,0
2023-03-04T05:31:46.052Z,0
2023-03-04T05:32:27.447Z,0
2023-03-04T05:33:07.868Z,0
2023-03-04T05:36:48.920Z,0
2023-03-04T05:37:29.462Z,0
2023-03-04T05:38:09.984Z,0
2023-03-04T05:38:50.498Z,0
2023-03-04T05:42:14.105Z,0
2023-03-04T05:42:54.712Z,0
2023-03-04T05:43:35.152Z,0
2023-03-04T05:44:15.688Z,0
2023-03-04T05:44:56.207Z,0
2023-03-04T05:45:36.788Z,0
2023-03-04T05:46:17.391Z,0
2023-03-04T05:46:57.811Z,0
2023-03-04T05:53:04.398Z,0
2023-03-04T05:53:45.908Z,0
2023-03-04T05:54:26.438Z,0
2023-03-04T05:55:06.960Z,0
2023-03-04T05:55:47.484Z,0
2023-03-04T05:58:25.857Z,0
2023-03-04T05:59:06.402Z,0
2023-03-04T05:59:46.950Z,0
2023-03-04T06:00:27.476Z,0
2023-03-04T06:04:30.540Z,5
2023-03-04T06:05:11.057Z,5
2023-03-04T06:05:51.572Z,5
2023-03-04T06:06:32.091Z,5
2023-03-04T06:07:12.598Z,5
2023-03-04T06:07:53.126Z,5
2023-03-04T06:08:33.643Z,5
2023-03-04T06:09:14.144Z,5
2023-03-04T06:09:54.687Z,10
2023-03-04T06:15:20.616Z,15
2023-03-04T06:16:01.224Z,15
2023-03-04T06:16:41.668Z,15
2023-03-04T06:17:22.202Z,15
2023-03-04T06:18:02.723Z,15
2023-03-04T06:18:43.232Z,20
2023-03-04T06:19:23.730Z,20
2023-03-04T06:20:04.280Z,20
2023-03-04T06:20:44.816Z,20
2023-03-04T06:27:32.073Z,30
2023-03-04T06:28:12.583Z,30
2023-03-04T06:28:53.103Z,30
2023-03-04T06:29:33.617Z,30
2023-03-04T06:30:14.978Z,30
2023-03-04T06:30:55.489Z,30
2023-03-04T06:37:40.675Z,35
2023-03-04T06:38:21.183Z,35
2023-03-04T06:39:01.704Z,35
2023-03-04T06:41:40.791Z,40
2023-03-04T06:42:21.314Z,45
2023-03-04T06:43:02.538Z,45
2023-03-04T06:43:43.059Z,45
2023-03-04T06:47:05.677Z,50
2023-03-04T06:47:46.172Z,50
2023-03-04T06:48:26.705Z,50
2023-03-04T06:49:07.196Z,50
2023-03-04T06:49:47.706Z,50
2023-03-04T06:50:28.235Z,50
2023-03-04T06:51:08.748Z,50
2023-03-04T06:51:49.276Z,50
2023-03-04T06:52:29.783Z,55
2023-03-04T06:53:10.298Z,55
2023-03-04T06:58:35.418Z,55
2023-03-04T06:59:15.938Z,55
2023-03-04T06:59:56.454Z,55
2023-03-04T07:00:36.999Z,55
2023-03-04T07:01:17.509Z,55
2023-03-04T07:01:58.006Z,55
2023-03-04T07:02:38.518Z,55
2023-03-04T07:03:19.028Z,55
2023-03-04T07:05:57.478Z,50
2023-03-04T07:06:37.980Z,50
2023-03-04T07:07:33.622Z,55
2023-03-04T07:08:14.155Z,55
2023-03-04T07:08:55.657Z,60
2023-03-04T07:09:36.179Z,55
2023-03-04T07:10:16.692Z,55
2023-03-04T07:13:50.461Z,50
2023-03-04T07:14:30.956Z,50
2023-03-04T07:15:11.494Z,50
2023-03-04T07:15:52.012Z,50
2023-03-04T07:19:55.140Z,65
2023-03-04T07:20:36.437Z,65
2023-03-04T07:21:17.805Z,65
2023-03-04T07:21:58.924Z,70
2023-03-04T07:22:39.431Z,70
2023-03-04T07:23:19.950Z,75
2023-03-04T07:27:36.064Z,85
2023-03-04T07:28:16.567Z,85
2023-03-04T07:28:57.091Z,85
2023-03-04T07:29:37.613Z,85
2023-03-04T07:33:11.688Z,95
2023-03-04T07:33:52.195Z,95
2023-03-04T07:34:32.720Z,100
2023-03-04T07:35:13.235Z,105
2023-03-04T07:39:16.393Z,115
2023-03-04T07:39:57.846Z,115
2023-03-04T07:40:38.368Z,115
2023-03-04T07:41:18.859Z,115
2023-03-04T07:41:59.404Z,115
2023-03-04T07:42:39.917Z,115
2023-03-04T07:43:20.410Z,110
2023-03-04T07:44:00.949Z,115
2023-03-04T07:47:37.983Z,105
2023-03-04T07:48:19.298Z,105
2023-03-04T07:48:59.821Z,105
2023-03-04T07:49:40.336Z,105
2023-03-04T07:53:02.935Z,120
2023-03-04T07:53:43.452Z,120
2023-03-04T07:54:23.972Z,120
2023-03-04T07:55:04.489Z,125
2023-03-04T07:55:45.007Z,125
2023-03-04T07:56:25.518Z,125
2023-03-04T07:57:06.038Z,125
2023-03-04T07:57:47.408Z,120
2023-03-04T08:01:21.785Z,120
2023-03-04T08:02:02.315Z,120
2023-03-04T08:02:43.645Z,120
2023-03-04T08:03:24.098Z,115
2023-03-04T08:05:38.612Z,120
2023-03-04T08:06:19.135Z,125
2023-03-04T08:06:59.678Z,130
2023-03-04T08:07:40.938Z,130
2023-03-04T08:10:35.449Z,125
2023-03-04T08:11:15.981Z,125
2023-03-04T08:11:56.487Z,125
2023-03-04T08:12:37.087Z,120
2023-03-04T08:15:06.775Z,125
2023-03-04T08:15:47.301Z,130
2023-03-04T08:16:27.806Z,135
2023-03-04T08:17:08.321Z,140
2023-03-04T08:21:04.805Z,155
2023-03-04T08:21:45.322Z,150
2023-03-04T08:22:25.870Z,150
2023-03-04T08:23:06.354Z,145
2023-03-04T08:25:29.306Z,145
2023-03-04T08:26:09.822Z,145
2023-03-04T08:26:50.341Z,145
2023-03-04T08:27:30.859Z,145
2023-03-04T08:29:33.290Z,150
2023-03-04T08:30:15.550Z,160
2023-03-04T08:30:56.106Z,165
2023-03-04T08:31:36.671Z,170
2023-03-04T08:36:32.534Z,185
2023-03-04T08:37:13.051Z,185
2023-03-04T08:37:54.341Z,180
2023-03-04T08:38:34.818Z,180
2023-03-04T08:40:48.046Z,185
2023-03-04T08:41:28.560Z,195
2023-03-04T08:42:10.641Z,200
2023-03-04T08:42:51.140Z,200
2023-03-04T08:45:24.268Z,220
2023-03-04T08:46:04.820Z,220
2023-03-04T08:46:45.308Z,220
2023-03-04T08:47:25.850Z,215
2023-03-04T08:51:29.024Z,205
2023-03-04T08:52:09.516Z,205
2023-03-04T08:52:50.029Z,200
2023-03-04T08:53:30.600Z,200
2023-03-04T08:54:11.139Z,200
2023-03-04T08:54:51.683Z,205
2023-03-04T08:55:32.212Z,205
2023-03-04T08:58:05.745Z,205
2023-03-04T08:58:46.262Z,200
2023-03-04T08:59:26.770Z,200
2023-03-04T09:00:07.292Z,210
2023-03-04T09:02:25.920Z,220
2023-03-04T09:03:06.446Z,230
2023-03-04T09:03:48.589Z,235
2023-03-04T09:04:29.856Z,230
2023-03-04T09:08:30.644Z,240
2023-03-04T09:09:13.628Z,255
2023-03-04T09:09:55.094Z,260
2023-03-04T09:10:35.611Z,265
2023-03-04T09:13:03.855Z,245
2023-03-04T09:13:44.376Z,235
2023-03-04T09:14:24.924Z,235
2023-03-04T09:15:11.350Z,230
2023-03-04T09:19:08.544Z,230
2023-03-04T09:19:50.558Z,225
2023-03-04T09:20:31.078Z,220
2023-03-04T09:21:11.593Z,220
2023-03-04T09:21:52.096Z,220
2023-03-04T09:22:32.637Z,215
2023-03-04T09:23:13.152Z,215
2023-03-04T09:29:18.778Z,215
2023-03-04T09:29:59.402Z,220
2023-03-04T09:30:39.825Z,225
2023-03-04T09:31:20.418Z,225
2023-03-04T09:32:00.865Z,230
2023-03-04T09:32:41.428Z,235
2023-03-04T09:33:21.899Z,245
2023-03-04T09:34:02.437Z,255
2023-03-04T09:34:42.959Z,265
2023-03-04T09:35:23.541Z,265
2023-03-04T09:40:08.798Z,260
2023-03-04T09:40:49.294Z,265
2023-03-04T09:41:29.821Z,265
2023-03-04T09:42:11.283Z,255
2023-03-04T09:42:51.819Z,250
2023-03-04T09:43:32.379Z,250
2023-03-04T09:44:12.949Z,250
2023-03-04T09:44:53.488Z,255
2023-03-04T09:51:53.389Z,280
2023-03-04T09:52:34.602Z,275
2023-03-04T09:53:15.143Z,270
2023-03-04T09:53:56.215Z,270
2023-03-04T09:56:09.358Z,270
2023-03-04T09:56:49.836Z,270
2023-03-04T09:57:31.258Z,280
2023-03-04T09:58:11.764Z,290
2023-03-04T10:01:34.693Z,295
2023-03-04T10:02:15.211Z,290
2023-03-04T10:02:55.741Z,290
2023-03-04T10:03:36.285Z,300
2023-03-04T10:06:29.488Z,310
2023-03-04T10:07:10.026Z,295
2023-03-04T10:07:50.524Z,275
2023-03-04T10:08:31.049Z,265
2023-03-04T10:12:52.010Z,275
2023-03-04T10:13:32.499Z,280
2023-03-04T10:14:13.024Z,275
2023-03-04T10:14:53.544Z,275
2023-03-04T10:18:56.761Z,250
2023-03-04T10:21:25.055Z,275
2023-03-04T10:22:05.573Z,285
2023-03-04T10:22:46.126Z,290
2023-03-04T10:25:24.289Z,270
2023-03-04T10:26:04.815Z,270
2023-03-04T10:26:45.345Z,265
2023-03-04T10:27:25.878Z,260
2023-03-04T10:31:29.061Z,235
2023-03-04T10:32:11.198Z,220
2023-03-04T10:32:51.722Z,220
2023-03-04T10:33:32.227Z,215
2023-03-04T10:34:12.749Z,215
2023-03-04T10:34:53.259Z,210
2023-03-04T10:35:33.793Z,210
2023-03-04T10:39:49.175Z,205
2023-03-04T10:40:29.691Z,205
2023-03-04T10:41:10.208Z,205
2023-03-04T10:41:50.767Z,200
2023-03-04T10:44:24.158Z,195
2023-03-04T10:45:04.659Z,190
2023-03-04T10:45:45.209Z,190
2023-03-04T10:46:26.373Z,190
2023-03-04T10:49:49.182Z,185
2023-03-04T10:50:29.741Z,185
2023-03-04T10:51:10.270Z,190
2023-03-04T10:51:50.832Z,190
2023-03-04T10:52:31.385Z,185
2023-03-04T10:53:11.900Z,185
2023-03-04T10:53:52.471Z,180
2023-03-04T10:54:32.988Z,175
2023-03-04T11:00:09.718Z,185
2023-03-04T11:00:50.308Z,190
2023-03-04T11:01:30.829Z,190
2023-03-04T11:02:11.376Z,190
2023-03-04T11:06:14.687Z,180
2023-03-04T11:06:55.253Z,175
2023-03-04T11:07:52.406Z,175
2023-03-04T11:08:18.165Z,170
2023-03-04T11:08:58.751Z,170
2023-03-04T11:09:39.280Z,170
2023-03-04T11:13:13.494Z,160
2023-03-04T11:13:54.022Z,165
2023-03-04T11:14:34.606Z,165
2023-03-04T11:15:15.200Z,170
2023-03-04T11:18:38.214Z,175
2023-03-04T11:19:18.782Z,170
2023-03-04T11:19:59.357Z,170
2023-03-04T11:20:41.451Z,170
2023-03-04T11:21:22.055Z,170
2023-03-04T11:22:02.600Z,170
2023-03-04T11:28:10.476Z,175
2023-03-04T11:28:48.729Z,175
2023-03-04T11:31:27.293Z,180
2023-03-04T11:32:08.007Z,180
2023-03-04T11:32:48.377Z,180
2023-03-04T11:33:28.912Z,180
2023-03-04T11:37:32.152Z,170
2023-03-04T11:38:12.652Z,165
2023-03-04T11:38:53.222Z,165
2023-03-04T11:41:31.476Z,165
2023-03-04T11:42:11.965Z,165
2023-03-04T11:42:52.483Z,165
2023-03-04T11:43:33.024Z,170
2023-03-04T11:46:16.387Z,185
2023-03-04T11:46:56.952Z,180
2023-03-04T11:47:37.399Z,180
2023-03-04T11:48:17.892Z,175
2023-03-04T11:48:58.463Z,175
2023-03-04T11:49:38.968Z,175
2023-03-04T11:50:19.512Z,175
2023-03-04T11:51:00.028Z,175
2023-03-04T11:51:40.566Z,170
2023-03-04T11:52:21.076Z,170
2023-03-04T11:59:06.327Z,170
2023-03-04T11:59:46.877Z,170
2023-03-04T12:00:27.374Z,165
2023-03-04T12:01:07.928Z,165
2023-03-04T12:01:48.478Z,160
2023-03-04T12:02:29.000Z,160
2023-03-04T12:03:11.017Z,165
2023-03-04T12:03:50.834Z,165
2023-03-04T12:10:36.148Z,175
2023-03-04T12:11:17.168Z,175
2023-03-04T12:11:57.201Z,175
2023-03-04T12:12:37.762Z,180
2023-03-04T12:13:18.323Z,185
2023-03-04T12:15:56.805Z,185
2023-03-04T12:16:37.255Z,185
2023-03-04T12:17:18.279Z,185
2023-03-04T12:17:58.348Z,185
2023-03-04T12:22:01.510Z,170
2023-03-04T12:22:42.009Z,170
2023-03-04T12:23:22.527Z,170
2023-03-04T12:24:03.067Z,170
2023-03-04T12:24:43.564Z,170
2023-03-04T12:25:24.076Z,170
2023-03-04T12:26:04.614Z,170
2023-03-04T12:26:45.151Z,170
2023-03-04T12:27:25.759Z,170
2023-03-04T12:28:06.311Z,170
2023-03-04T12:34:51.779Z,175
2023-03-04T12:35:32.392Z,175
2023-03-04T12:36:13.092Z,170
2023-03-04T12:36:53.603Z,170
2023-03-04T12:37:35.607Z,165
2023-03-04T12:38:14.684Z,165
2023-03-04T12:38:55.234Z,165
2023-03-04T12:39:35.788Z,165
2023-03-04T12:45:41.466Z,190
2023-03-04T12:46:22.029Z,190
2023-03-04T12:47:02.722Z,190
2023-03-04T12:47:43.282Z,185
2023-03-04T12:48:23.828Z,180
2023-03-04T12:49:04.368Z,180
2023-03-04T12:49:44.870Z,180
2023-03-04T12:50:25.437Z,180
2023-03-04T12:51:05.984Z,185
2023-03-04T12:54:49.311Z,190
2023-03-04T12:55:35.333Z,195
2023-03-04T12:56:17.314Z,195
2023-03-04T12:56:59.754Z,195
2023-03-04T12:57:42.817Z,200
2023-03-04T13:00:14.077Z,200
2023-03-04T13:00:54.593Z,195
2023-03-04T13:01:36.079Z,195
2023-03-04T13:02:16.612Z,190
2023-03-04T13:04:31.133Z,195
2023-03-04T13:05:11.640Z,195
2023-03-04T13:05:53.695Z,190
2023-03-04T13:06:33.664Z,190
2023-03-04T13:08:48.182Z,185
2023-03-04T13:09:28.875Z,185
2023-03-04T13:10:10.428Z,185
2023-03-04T13:10:51.018Z,185
2023-03-04T13:12:53.453Z,190
2023-03-04T13:13:33.680Z,185
2023-03-04T13:14:14.258Z,185
2023-03-04T13:14:55.792Z,185
2023-03-04T13:15:36.277Z,180
2023-03-04T13:16:16.863Z,175
2023-03-04T13:16:57.394Z,175
2023-03-04T13:23:03.214Z,175
2023-03-04T13:23:43.749Z,175
2023-03-04T13:24:24.459Z,175
2023-03-04T13:25:04.987Z,175
2023-03-04T13:25:45.547Z,175
2023-03-04T13:26:26.153Z,170
2023-03-04T13:27:06.707Z,170
2023-03-04T13:27:47.257Z,165
2023-03-04T13:32:44.327Z,145
2023-03-04T13:33:23.902Z,145
2023-03-04T13:34:04.557Z,140
2023-03-04T13:34:45.064Z,140
2023-03-04T13:38:07.982Z,135
2023-03-04T13:38:48.507Z,130
2023-03-04T13:39:29.205Z,130
2023-03-04T13:40:09.736Z,130
2023-03-04T13:40:50.238Z,125
2023-03-04T13:41:30.849Z,125
2023-03-04T13:42:11.388Z,125
2023-03-04T13:42:51.897Z,130
2023-03-04T13:43:32.454Z,135
2023-03-04T13:50:29.140Z,130
2023-03-04T13:51:17.586Z,130
2023-03-04T13:51:50.215Z,125
2023-03-04T13:52:30.781Z,125
2023-03-04T13:55:24.888Z,125
2023-03-04T13:56:05.424Z,130
2023-03-04T13:56:45.946Z,130
2023-03-04T13:57:26.489Z,135
2023-03-04T13:59:40.855Z,135
2023-03-04T14:00:21.409Z,140
2023-03-04T14:01:02.011Z,140
2023-03-04T14:01:42.515Z,140
2023-03-04T14:05:46.813Z,135
2023-03-04T14:06:27.301Z,135
2023-03-04T14:07:07.820Z,135
2023-03-04T14:07:48.349Z,135
2023-03-04T14:08:28.944Z,135
2023-03-04T14:09:09.492Z,135
2023-03-04T14:11:47.699Z,115
2023-03-04T14:12:28.277Z,115
2023-03-04T14:13:08.801Z,115
2023-03-04T14:13:49.360Z,115
2023-03-04T14:16:42.981Z,110
2023-03-04T14:17:23.461Z,105
2023-03-04T14:18:04.001Z,105
2023-03-04T14:18:44.543Z,105
2023-03-04T14:21:18.169Z,100
2023-03-04T14:21:58.650Z,95
2023-03-04T14:22:39.218Z,95
2023-03-04T14:23:19.760Z,95
2023-03-04T14:24:00.338Z,95
2023-03-04T14:24:40.891Z,95
2023-03-04T14:25:21.428Z,95
2023-03-04T14:26:01.941Z,95
2023-03-04T14:26:42.546Z,95
2023-03-04T14:27:23.087Z,95
2023-03-04T14:28:03.752Z,95
2023-03-04T14:32:18.232Z,95
2023-03-04T14:32:58.721Z,95
2023-03-04T14:33:39.254Z,95
2023-03-04T14:34:19.819Z,90
2023-03-04T14:38:23.161Z,80
2023-03-04T14:39:03.672Z,80
2023-03-04T14:39:44.263Z,80
2023-03-04T14:40:24.820Z,75
2023-03-04T14:41:05.366Z,75
2023-03-04T14:41:45.923Z,75
2023-03-04T14:42:26.466Z,75
2023-03-04T14:43:06.974Z,75
2023-03-04T14:43:47.540Z,75
2023-03-04T14:52:05.246Z,75
2023-03-04T14:52:45.725Z,75
2023-03-04T14:53:26.280Z,75
2023-03-04T14:54:06.852Z,75
2023-03-04T14:59:42.633Z,70
2023-03-04T15:00:23.197Z,70
2023-03-04T15:01:03.787Z,70
2023-03-04T15:01:44.307Z,70
2023-03-04T15:05:58.745Z,65
2023-03-04T15:06:39.297Z,65
2023-03-04T15:07:20.055Z,60
2023-03-04T15:08:00.476Z,60
2023-03-04T15:12:14.815Z,55
2023-03-04T15:12:55.392Z,55
2023-03-04T15:13:35.975Z,55
2023-03-04T15:14:16.535Z,55
2023-03-04T15:18:19.747Z,55
2023-03-04T15:19:00.276Z,55
2023-03-04T15:19:40.848Z,55
2023-03-04T15:20:21.388Z,55
2023-03-04T15:21:01.939Z,55
2023-03-04T15:21:42.631Z,55
2023-03-04T15:22:23.166Z,55
2023-03-04T15:23:03.688Z,55
2023-03-04T15:23:44.265Z,55
2023-03-04T15:31:13.134Z,45
2023-03-04T15:31:54.393Z,45
2023-03-04T15:32:35.624Z,45
2023-03-04T15:33:16.140Z,45
2023-03-04T15:35:29.148Z,45
2023-03-04T15:36:09.656Z,45
2023-03-04T15:36:50.180Z,45
2023-03-04T15:37:31.257Z,45
2023-03-04T15:39:51.233Z,45
2023-03-04T15:40:31.796Z,40
2023-03-04T15:41:12.365Z,40
2023-03-04T15:41:52.943Z,40
2023-03-04T15:44:05.666Z,40
2023-03-04T15:44:46.182Z,35
2023-03-04T15:45:26.718Z,35
2023-03-04T15:46:08.166Z,35
2023-03-04T15:48:10.251Z,35
2023-03-04T15:48:50.751Z,35
2023-03-04T15:49:31.278Z,35
2023-03-04T15:50:11.810Z,35
2023-03-04T15:50:52.359Z,35
2023-03-04T15:51:32.853Z,30
2023-03-04T15:52:13.379Z,30
2023-03-04T15:52:53.943Z,30
2023-03-04T15:53:34.468Z,30
2023-03-04T15:54:15.001Z,30
2023-03-04T16:00:20.271Z,30
2023-03-04T16:01:00.810Z,30
2023-03-04T16:01:41.338Z,30
2023-03-04T16:02:21.830Z,30
2023-03-04T16:03:02.384Z,30
2023-03-04T16:03:42.926Z,30
2023-03-04T16:04:23.510Z,30
2023-03-04T16:05:04.021Z,30
2023-03-04T16:05:44.558Z,30
2023-03-04T16:11:10.258Z,25
2023-03-04T16:11:50.785Z,25
2023-03-04T16:14:29.213Z,30
2023-03-04T16:15:09.723Z,30
2023-03-04T16:15:50.283Z,30
2023-03-04T16:16:30.763Z,35
2023-03-04T16:20:33.892Z,30
2023-03-04T16:21:14.421Z,30
2023-03-04T16:21:54.927Z,30
2023-03-04T16:22:35.443Z,30
2023-03-04T16:23:16.644Z,30
2023-03-04T16:23:58.039Z,30
2023-03-04T16:24:38.534Z,30
2023-03-04T16:28:14.513Z,25
2023-03-04T16:28:56.015Z,25
2023-03-04T16:29:36.531Z,25
2023-03-04T16:30:19.009Z,25
2023-03-04T16:32:35.151Z,25
2023-03-04T16:33:15.278Z,20
2023-03-04T16:33:55.795Z,20
2023-03-04T16:34:36.321Z,20
2023-03-04T16:37:59.787Z,15
2023-03-04T16:38:40.322Z,15
2023-03-04T16:39:20.871Z,15
2023-03-04T16:40:01.362Z,15
2023-03-04T16:40:41.874Z,15
2023-03-04T16:41:22.436Z,15
2023-03-04T16:42:02.923Z,15
2023-03-04T16:42:43.943Z,15
2023-03-04T16:51:43.415Z,10
2023-03-04T16:52:23.934Z,5
2023-03-04T16:53:04.459Z,5
2023-03-04T16:53:45.011Z,5
2023-03-04T16:58:00.508Z,5
2023-03-04T16:58:41.030Z,5
2023-03-04T16:59:21.566Z,5
2023-03-04T17:00:02.176Z,5
2023-03-04T17:04:05.221Z,0
2023-03-04T17:04:45.736Z,0
2023-03-04T17:05:26.254Z,0
2023-03-04T17:06:06.768Z,0
2023-03-04T17:06:48.035Z,0
2023-03-04T17:07:28.556Z,0
2023-03-04T17:08:09.071Z,0
2023-03-04T17:08:49.600Z,0
2023-03-04T17:09:30.141Z,0
2023-03-04T17:14:04.500Z,0
2023-03-04T17:14:45.011Z,0
2023-03-04T17:15:25.599Z,0
2023-03-04T17:16:06.294Z,0
2023-03-04T17:20:09.788Z,0
2023-03-04T17:20:50.313Z,0
2023-03-04T17:21:30.817Z,0
2023-03-04T17:22:11.345Z,0
2023-03-04T17:22:52.788Z,0
2023-03-04T17:23:33.306Z,0
2023-03-04T17:24:13.825Z,0
2023-03-04T17:30:59.095Z,0
2023-03-04T17:31:39.833Z,0
2023-03-04T17:32:20.391Z,0
2023-03-04T17:33:00.844Z,0
2023-03-04T17:33:41.347Z,0
2023-03-04T17:34:21.859Z,0
2023-03-04T17:37:01.734Z,0
2023-03-04T17:37:42.247Z,0
2023-03-04T17:38:22.760Z,0
2023-03-04T17:39:03.344Z,0
2023-03-04T17:41:57.911Z,0
2023-03-04T17:42:38.442Z,0
2023-03-04T17:43:18.953Z,0
2023-03-04T17:43:59.518Z,0
2023-03-04T17:48:02.663Z,0
2023-03-04T17:48:43.168Z,0
2023-03-04T17:49:23.694Z,0
2023-03-04T17:50:04.214Z,0
2023-03-04T17:50:44.731Z,0
2023-03-04T17:51:25.954Z,0
2023-03-04T17:52:06.460Z,0
2023-03-04T17:52:46.957Z,0
2023-03-04T17:53:27.479Z,0
2023-03-04T18:00:12.813Z,0
2023-03-04T18:00:53.349Z,0
2023-03-04T18:01:33.846Z,0
2023-03-04T18:02:14.419Z,0
2023-03-04T18:02:54.916Z,0
2023-03-04T18:03:35.436Z,0
2023-03-04T18:04:15.948Z,0
2023-03-04T18:04:56.471Z,0
2023-03-04T18:05:37.560Z,0
2023-03-04T18:10:32.719Z,0
2023-03-04T18:11:13.261Z,0
2023-03-04T18:11:53.809Z,0
2023-03-04T18:12:34.391Z,0
2023-03-04T18:15:29.783Z,0
2023-03-04T18:16:10.313Z,0
2023-03-04T18:16:50.839Z,0
2023-03-04T18:17:31.368Z,0
2023-03-04T18:21:34.516Z,0
2023-03-04T18:22:15.054Z,0